Time;durP1;ratioP1;P1;durP2;ratioP2;P2;SDS_P1;SDS_P2;PMS_P1;PMS_P2;Temp;Humidity;BMP_temperature;BMP_pressure;BME280_temperature;BME280_humidity;BME280_pressure;Samples;Min_cycle;Max_cycle;Signal;HPM_P1;HPM_P2
2022/03/22 00:00:55;;;;;;;7.47;4.60;;;9.80;1.00;;;;;;5090418;28;20254;-70
2022/03/22 00:03:23;;;;;;;9.20;5.83;;;9.80;1.00;;;;;;5090481;28;20597;-68
2022/03/22 00:05:52;;;;;;;8.43;5.57;;;9.80;1.00;;;;;;5090336;28;20244;-70
2022/03/22 00:08:19;;;;;;;5.37;4.83;;;9.80;1.00;;;;;;5090768;28;20205;-71
2022/03/22 00:10:46;;;;;;;9.03;6.10;;;9.80;1.00;;;;;;5090702;28;20202;-74
2022/03/22 00:13:14;;;;;;;7.40;5.00;;;9.80;1.00;;;;;;5090762;28;20201;-72
2022/03/22 00:15:41;;;;;;;4.83;4.17;;;9.80;1.00;;;;;;5090505;28;20665;-74
2022/03/22 00:18:08;;;;;;;8.23;6.30;;;9.70;1.00;;;;;;5090329;28;20198;-72
2022/03/22 00:20:35;;;;;;;8.83;5.30;;;9.70;1.00;;;;;;5090398;28;20673;-73
2022/03/22 00:23:03;;;;;;;7.87;6.30;;;9.60;1.00;;;;;;5089960;28;20258;-71
2022/03/22 00:25:30;;;;;;;9.37;5.77;;;9.70;1.00;;;;;;5090449;28;20669;-72
2022/03/22 00:27:57;;;;;;;6.50;4.90;;;9.70;1.00;;;;;;5089888;28;20202;-72
2022/03/22 00:30:27;;;;;;;8.30;5.67;;;9.70;1.00;;;;;;5090214;28;20201;-76
2022/03/22 00:32:56;;;;;;;6.23;5.63;;;9.70;1.00;;;;;;5090094;28;20201;-74
2022/03/22 00:35:24;;;;;;;6.30;5.60;;;9.80;1.00;;;;;;5090963;28;20202;-73
2022/03/22 00:37:53;;;;;;;9.17;5.77;;;9.70;1.00;;;;;;5093805;28;20201;-72
2022/03/22 00:40:22;;;;;;;9.27;5.27;;;9.60;1.00;;;;;;5093763;28;20241;-73
2022/03/22 00:42:53;;;;;;;10.17;5.60;;;9.60;1.00;;;;;;5093579;28;20271;-71
2022/03/22 00:45:22;;;;;;;7.30;4.97;;;9.60;1.00;;;;;;5093613;28;20229;-74
2022/03/22 00:47:51;;;;;;;7.27;5.63;;;9.60;1.00;;;;;;5093554;28;20201;-73
2022/03/22 00:50:20;;;;;;;6.30;5.40;;;9.50;1.00;;;;;;5093766;28;20266;-73
2022/03/22 00:52:48;;;;;;;8.17;5.60;;;9.50;1.00;;;;;;5093408;28;20723;-68
2022/03/22 00:55:15;;;;;;;6.57;5.27;;;9.60;1.00;;;;;;5094071;28;20206;-71
2022/03/22 00:57:44;;;;;;;16.37;8.20;;;9.60;1.00;;;;;;5094059;28;20256;-75
2022/03/22 01:00:15;;;;;;;7.47;5.20;;;9.50;1.00;;;;;;5093539;28;20255;-71
2022/03/22 01:02:49;;;;;;;8.37;5.50;;;9.50;1.00;;;;;;5093784;28;20247;-72
2022/03/22 01:05:19;;;;;;;8.20;5.73;;;9.50;1.00;;;;;;5093454;28;20229;-72
2022/03/22 01:07:47;;;;;;;9.57;5.97;;;9.40;1.00;;;;;;5093439;28;20287;-72
2022/03/22 01:10:16;;;;;;;8.30;5.57;;;9.40;1.00;;;;;;5093780;28;20337;-72
2022/03/22 01:12:46;;;;;;;13.13;6.40;;;9.50;1.00;;;;;;5093826;28;20251;-73
2022/03/22 01:15:15;;;;;;;8.07;5.73;;;9.50;1.00;;;;;;5093615;28;20206;-73
2022/03/22 01:17:43;;;;;;;8.53;5.40;;;9.40;1.00;;;;;;5093690;28;20228;-75
2022/03/22 01:20:11;;;;;;;11.13;6.77;;;9.50;1.00;;;;;;5092989;28;20258;-71
2022/03/22 01:22:39;;;;;;;6.33;4.70;;;9.50;1.00;;;;;;5093424;28;20198;-76
2022/03/22 01:25:08;;;;;;;9.50;5.73;;;9.40;1.00;;;;;;5092653;28;20237;-75
2022/03/22 01:27:36;;;;;;;9.27;5.10;;;9.40;1.00;;;;;;5092922;28;20251;-74
2022/03/22 01:30:07;;;;;;;5.90;4.97;;;9.50;1.00;;;;;;5092801;28;20229;-74
2022/03/22 01:32:34;;;;;;;9.07;5.67;;;9.50;1.00;;;;;;5092964;28;20201;-73
2022/03/22 01:35:01;;;;;;;6.63;4.87;;;9.50;1.00;;;;;;5092856;28;20578;-73
2022/03/22 01:37:28;;;;;;;9.27;5.63;;;9.50;1.00;;;;;;5092892;28;20730;-74
2022/03/22 01:39:55;;;;;;;8.13;4.60;;;9.50;1.00;;;;;;5092429;28;20197;-76
2022/03/22 01:42:22;;;;;;;5.50;4.07;;;9.50;1.00;;;;;;5092590;28;20245;-73
2022/03/22 01:44:49;;;;;;;8.03;5.23;;;9.60;1.00;;;;;;5092335;28;20654;-75
2022/03/22 01:47:19;;;;;;;6.47;4.67;;;9.50;1.00;;;;;;5091697;28;20209;-74
2022/03/22 01:49:47;;;;;;;5.33;4.60;;;9.50;1.00;;;;;;5092294;28;20209;-71
2022/03/22 01:52:15;;;;;;;8.00;5.30;;;9.50;1.00;;;;;;5092965;28;20201;-75
2022/03/22 01:54:43;;;;;;;7.20;4.47;;;9.60;1.00;;;;;;5092835;28;20815;-74
2022/03/22 01:57:10;;;;;;;9.60;4.80;;;9.50;1.00;;;;;;5092002;28;20286;-70
2022/03/22 01:59:37;;;;;;;6.70;4.63;;;9.50;1.00;;;;;;5092405;28;20716;-70
2022/03/22 02:07:38;;;;;;;9.97;4.40;;;9.50;1.00;;;;;;5092453;28;20205;-71
2022/03/22 02:10:06;;;;;;;9.73;4.50;;;9.60;1.00;;;;;;5091929;28;20201;-71
2022/03/22 02:12:33;;;;;;;6.93;4.60;;;9.60;1.00;;;;;;5092280;28;20202;-70
2022/03/22 02:15:00;;;;;;;7.27;4.77;;;9.60;1.00;;;;;;5091731;28;20617;-71
2022/03/22 02:17:27;;;;;;;9.23;4.20;;;9.50;1.00;;;;;;5092304;28;20628;-71
2022/03/22 02:19:56;;;;;;;7.63;5.23;;;9.60;1.00;;;;;;5091832;28;20263;-69
2022/03/22 02:22:33;;;;;;;7.03;5.00;;;9.60;1.00;;;;;;5092008;28;20209;-69
2022/03/22 02:25:02;;;;;;;8.90;5.47;;;9.60;1.00;;;;;;5091329;28;20659;-70
2022/03/22 02:27:34;;;;;;;9.20;5.07;;;9.50;1.00;;;;;;5091619;28;20737;-73
2022/03/22 02:30:01;;;;;;;7.87;5.87;;;9.60;1.00;;;;;;5091397;28;20202;-70
2022/03/22 02:32:28;;;;;;;8.93;5.30;;;9.50;1.00;;;;;;5092328;28;20201;-71
2022/03/22 02:34:55;;;;;;;13.87;5.87;;;9.60;1.00;;;;;;5091423;28;20201;-70
2022/03/22 02:37:22;;;;;;;10.73;5.60;;;9.50;1.00;;;;;;5091772;28;20265;-70
2022/03/22 02:39:49;;;;;;;7.63;5.90;;;9.50;1.00;;;;;;5091214;28;20249;-72
2022/03/22 02:42:17;;;;;;;8.70;6.07;;;9.60;1.00;;;;;;5091676;28;20610;-72
2022/03/22 02:44:44;;;;;;;10.20;6.13;;;9.60;1.00;;;;;;5091970;28;20229;-73
2022/03/22 02:47:11;;;;;;;13.90;5.70;;;9.60;1.00;;;;;;5091553;28;20205;-70
2022/03/22 02:49:39;;;;;;;9.03;5.10;;;9.70;1.00;;;;;;5091366;28;20214;-71
2022/03/22 02:52:07;;;;;;;5.90;5.07;;;9.80;1.00;;;;;;5090890;28;20209;-70
2022/03/22 02:54:34;;;;;;;6.43;5.47;;;9.80;1.00;;;;;;5091253;28;20223;-72
2022/03/22 02:57:01;;;;;;;7.63;5.20;;;9.80;1.00;;;;;;5091159;28;20579;-71
2022/03/22 02:59:29;;;;;;;7.50;6.23;;;9.80;1.00;;;;;;5091354;28;20224;-74
2022/03/22 03:01:57;;;;;;;7.17;5.20;;;9.80;1.00;;;;;;5090969;28;20205;-73
2022/03/22 03:04:24;;;;;;;13.10;5.87;;;9.80;1.00;;;;;;5091147;28;20750;-75
2022/03/22 03:06:51;;;;;;;7.97;5.60;;;9.80;1.00;;;;;;5085764;28;20630;-70
2022/03/22 03:09:18;;;;;;;9.50;6.67;;;9.90;1.00;;;;;;5070402;28;20206;-72
2022/03/22 03:11:45;;;;;;;8.43;4.60;;;9.90;1.00;;;;;;5071010;28;20259;-70
2022/03/22 03:16:59;;;;;;;10.30;5.90;;;9.90;1.00;;;;;;5070413;28;20237;-74
2022/03/22 03:19:26;;;;;;;9.00;5.87;;;9.80;1.00;;;;;;5071028;28;20202;-75
2022/03/22 03:21:53;;;;;;;7.53;5.73;;;9.90;1.00;;;;;;5070555;28;20286;-74
2022/03/22 03:24:20;;;;;;;8.03;6.00;;;9.90;1.00;;;;;;5070702;28;20284;-76
2022/03/22 03:26:47;;;;;;;9.03;6.20;;;9.90;1.00;;;;;;5070436;28;20581;-72
2022/03/22 03:29:14;;;;;;;10.10;6.73;;;9.80;1.00;;;;;;5071015;28;20202;-73
2022/03/22 03:31:41;;;;;;;8.00;6.03;;;9.90;1.00;;;;;;5071221;28;20202;-73
2022/03/22 03:34:10;;;;;;;12.23;5.47;;;9.80;1.00;;;;;;5070357;28;20202;-74
2022/03/22 03:36:36;;;;;;;9.20;5.73;;;9.70;1.00;;;;;;5070880;28;20198;-70
2022/03/22 03:39:04;;;;;;;6.83;4.77;;;9.80;1.00;;;;;;5069910;28;20210;-70
2022/03/22 03:47:07;;;;;;;11.63;7.00;;;9.70;1.00;;;;;;5070401;28;20205;-70
2022/03/22 03:49:37;;;;;;;7.13;5.23;;;9.90;1.00;;;;;;5070399;28;20260;-72
2022/03/22 03:52:06;;;;;;;9.33;5.63;;;9.90;1.00;;;;;;5069908;28;20202;-72
2022/03/22 03:54:33;;;;;;;11.00;5.87;;;9.80;1.00;;;;;;5070278;28;20572;-70
2022/03/22 03:57:00;;;;;;;8.03;5.93;;;9.80;1.00;;;;;;5070320;28;20256;-73
2022/03/22 03:59:27;;;;;;;7.37;6.30;;;9.70;1.00;;;;;;5070435;28;20548;-69
2022/03/22 04:01:54;;;;;;;6.43;5.40;;;9.90;1.00;;;;;;5069987;28;20665;-70
2022/03/22 04:04:21;;;;;;;10.57;6.47;;;9.80;1.00;;;;;;5070092;28;20248;-71
2022/03/22 04:06:50;;;;;;;9.60;5.80;;;9.90;1.00;;;;;;5069669;28;20232;-72
2022/03/22 04:09:17;;;;;;;7.63;5.83;;;9.90;1.00;;;;;;5070562;28;20625;-71
2022/03/22 04:11:45;;;;;;;7.90;5.83;;;9.90;1.00;;;;;;5073337;28;20661;-68
2022/03/22 04:14:14;;;;;;;7.43;6.17;;;9.90;1.00;;;;;;5089150;28;20213;-73
2022/03/22 04:16:42;;;;;;;7.97;6.07;;;9.80;1.00;;;;;;5082049;28;20197;-74
2022/03/22 04:19:09;;;;;;;6.30;4.67;;;9.90;1.00;;;;;;5094006;28;20292;-71
2022/03/22 04:21:38;;;;;;;9.63;6.27;;;10.00;1.00;;;;;;5094119;28;20206;-72
2022/03/22 04:24:08;;;;;;;14.17;8.07;;;9.90;1.00;;;;;;5093886;28;20667;-70
2022/03/22 04:26:36;;;;;;;7.67;6.20;;;9.90;1.00;;;;;;5094199;28;20290;-70
2022/03/22 04:34:38;;;;;;;5.40;4.37;;;10.00;1.00;;;;;;5094002;28;20208;-69
2022/03/22 04:37:07;;;;;;;6.47;4.80;;;10.10;1.00;;;;;;5093452;28;20631;-73
2022/03/22 04:39:36;;;;;;;6.20;5.27;;;10.10;1.00;;;;;;5094039;28;20209;-74
2022/03/22 04:42:04;;;;;;;6.63;5.53;;;10.20;1.00;;;;;;5093585;28;20224;-70
2022/03/22 04:44:31;;;;;;;7.33;5.40;;;10.10;1.00;;;;;;5082800;28;20206;-72
2022/03/22 04:46:59;;;;;;;11.33;5.20;;;10.10;1.00;;;;;;5080290;28;20206;-71
2022/03/22 04:49:27;;;;;;;7.27;4.27;;;10.10;1.00;;;;;;5087449;28;20264;-71
2022/03/22 04:57:26;;;;;;;5.50;4.20;;;10.10;1.00;;;;;;5092413;28;20680;-73
2022/03/22 04:59:54;;;;;;;7.40;3.73;;;10.10;1.00;;;;;;5093386;28;20206;-75
2022/03/22 05:02:21;;;;;;;6.33;4.50;;;10.00;1.00;;;;;;5093412;28;20665;-73
2022/03/22 05:04:48;;;;;;;5.80;4.53;;;10.00;1.00;;;;;;5092729;28;20229;-72
2022/03/22 05:07:15;;;;;;;6.80;4.07;;;10.00;1.00;;;;;;5093513;28;20570;-72
2022/03/22 05:09:43;;;;;;;7.93;4.70;;;10.10;1.00;;;;;;5093686;28;20201;-73
2022/03/22 05:12:13;;;;;;;4.60;3.67;;;10.00;1.00;;;;;;5093343;28;20657;-73
2022/03/22 05:14:41;;;;;;;8.13;4.00;;;10.10;1.00;;;;;;5093780;28;20206;-73
2022/03/22 05:17:11;;;;;;;5.33;4.00;;;10.10;1.00;;;;;;5092964;28;20204;-71
2022/03/22 05:19:39;;;;;;;5.77;4.73;;;10.10;1.00;;;;;;5093009;28;20296;-71
2022/03/22 05:22:06;;;;;;;4.77;3.57;;;10.10;1.00;;;;;;5092654;28;20549;-71
2022/03/22 05:24:33;;;;;;;5.83;3.80;;;10.10;1.00;;;;;;5089637;28;20251;-72
2022/03/22 05:27:06;;;;;;;8.17;4.57;;;10.00;1.00;;;;;;5081011;28;20213;-72
2022/03/22 05:29:36;;;;;;;5.27;4.07;;;9.80;1.00;;;;;;5092474;28;20724;-73
2022/03/22 05:32:04;;;;;;;5.87;4.63;;;10.00;1.00;;;;;;5088225;28;20406;-73
2022/03/22 05:34:31;;;;;;;4.20;3.80;;;10.00;1.00;;;;;;5092477;28;20206;-72
2022/03/22 05:36:58;;;;;;;6.70;4.37;;;10.00;1.00;;;;;;5092069;28;20210;-69
2022/03/22 05:39:26;;;;;;;6.43;4.90;;;10.00;1.00;;;;;;5092585;28;20206;-71
2022/03/22 05:41:53;;;;;;;6.20;4.03;;;10.00;1.00;;;;;;5090103;28;20211;-68
2022/03/22 05:44:21;;;;;;;6.10;4.60;;;9.90;1.00;;;;;;5078777;28;20208;-72
2022/03/22 05:46:49;;;;;;;13.57;4.80;;;10.00;1.00;;;;;;5091809;28;20237;-72
2022/03/22 05:49:16;;;;;;;8.00;4.13;;;10.00;1.00;;;;;;5092142;28;20652;-72
2022/03/22 05:51:43;;;;;;;6.07;4.13;;;10.00;1.00;;;;;;5092318;28;20205;-74
2022/03/22 05:54:10;;;;;;;7.97;4.60;;;10.00;1.00;;;;;;5091771;28;20197;-73
2022/03/22 05:56:37;;;;;;;8.07;4.60;;;10.10;1.00;;;;;;5092039;28;20205;-74
2022/03/22 05:59:04;;;;;;;4.53;4.00;;;10.10;1.00;;;;;;5091688;28;20233;-73
2022/03/22 06:01:32;;;;;;;9.87;4.23;;;10.00;1.00;;;;;;5091979;28;20626;-71
2022/03/22 06:03:59;;;;;;;5.53;3.77;;;10.20;1.00;;;;;;5091100;28;20250;-73
2022/03/22 06:06:26;;;;;;;8.70;5.47;;;10.10;1.00;;;;;;5092341;28;20648;-72
2022/03/22 06:08:53;;;;;;;10.23;4.67;;;10.00;1.00;;;;;;5091716;28;20205;-73
2022/03/22 06:11:20;;;;;;;9.60;4.47;;;10.10;1.00;;;;;;5092046;28;20258;-72
2022/03/22 06:13:47;;;;;;;7.00;4.50;;;10.00;1.00;;;;;;5091626;28;20270;-72
2022/03/22 06:16:16;;;;;;;6.30;4.23;;;10.10;1.00;;;;;;5092456;28;20205;-71
2022/03/22 06:18:44;;;;;;;7.03;4.27;;;10.20;1.00;;;;;;5089732;28;20198;-75
2022/03/22 06:21:11;;;;;;;9.60;4.67;;;10.10;1.00;;;;;;5091956;28;20251;-75
2022/03/22 06:23:38;;;;;;;7.63;4.10;;;10.10;1.00;;;;;;5091730;28;20250;-72
2022/03/22 06:26:05;;;;;;;14.77;4.53;;;10.10;1.00;;;;;;5091243;28;20229;-72
2022/03/22 06:28:32;;;;;;;7.27;5.10;;;10.10;1.00;;;;;;5091426;28;20210;-73
2022/03/22 06:30:59;;;;;;;7.20;5.03;;;10.10;1.00;;;;;;5091367;28;20737;-70
2022/03/22 06:33:27;;;;;;;10.53;4.63;;;10.10;1.00;;;;;;5091010;28;20205;-70
2022/03/22 06:35:55;;;;;;;7.93;4.63;;;10.10;1.00;;;;;;5090969;28;20654;-72
2022/03/22 06:38:23;;;;;;;8.00;4.97;;;10.20;1.00;;;;;;5091446;28;20266;-72
2022/03/22 06:40:50;;;;;;;8.93;4.53;;;10.20;1.00;;;;;;5091072;28;20322;-75
2022/03/22 06:43:18;;;;;;;5.30;4.10;;;10.20;1.00;;;;;;5091350;28;20288;-75
2022/03/22 06:45:47;;;;;;;15.60;6.13;;;10.20;1.00;;;;;;5090876;28;20218;-71
2022/03/22 06:48:15;;;;;;;7.87;4.70;;;10.20;1.00;;;;;;5091364;28;20214;-70
2022/03/22 06:50:44;;;;;;;7.40;3.80;;;10.30;1.00;;;;;;5091347;28;20206;-70
2022/03/22 06:53:13;;;;;;;8.60;4.63;;;10.30;1.00;;;;;;5090995;28;20205;-71
2022/03/22 06:55:41;;;;;;;7.07;4.30;;;10.40;1.00;;;;;;5090857;28;20258;-74
2022/03/22 06:58:09;;;;;;;5.77;3.80;;;10.40;1.00;;;;;;5090867;28;20578;-72
2022/03/22 07:00:36;;;;;;;8.93;5.53;;;10.50;1.00;;;;;;5091225;28;20205;-71
2022/03/22 07:03:04;;;;;;;6.50;3.73;;;10.60;1.00;;;;;;5090455;28;20205;-70
2022/03/22 07:05:32;;;;;;;5.83;3.97;;;10.50;1.00;;;;;;5090823;28;20229;-71
2022/03/22 07:08:00;;;;;;;6.70;3.33;;;10.60;1.00;;;;;;5090573;28;20209;-74
2022/03/22 07:10:30;;;;;;;5.13;4.13;;;10.60;1.00;;;;;;5090991;28;20212;-71
2022/03/22 07:12:59;;;;;;;4.73;3.70;;;10.70;1.00;;;;;;5090735;28;20205;-71
2022/03/22 07:15:29;;;;;;;6.23;4.37;;;10.80;1.00;;;;;;5090933;28;20210;-73
2022/03/22 07:17:58;;;;;;;5.70;3.93;;;10.80;1.00;;;;;;5090581;28;20208;-73
2022/03/22 07:20:25;;;;;;;4.20;3.47;;;10.90;1.00;;;;;;5090279;28;20606;-78
2022/03/22 07:22:52;;;;;;;5.97;4.97;;;11.00;1.00;;;;;;5086970;28;20198;-72
2022/03/22 07:25:20;;;;;;;7.90;3.40;;;11.00;1.00;;;;;;5074100;28;20199;-75
2022/03/22 07:27:48;;;;;;;4.90;3.33;;;11.10;1.00;;;;;;5086650;28;20206;-72
2022/03/22 07:30:16;;;;;;;5.70;3.77;;;11.20;1.00;;;;;;5083900;28;20202;-73
2022/03/22 07:32:44;;;;;;;9.60;3.23;;;11.20;1.00;;;;;;5085832;28;20209;-73
2022/03/22 07:35:12;;;;;;;6.47;4.53;;;11.30;1.00;;;;;;5077529;28;20258;-76
2022/03/22 07:37:40;;;;;;;6.07;4.13;;;11.30;1.00;;;;;;5074600;28;20263;-74
2022/03/22 07:40:09;;;;;;;14.13;5.10;;;11.30;1.00;;;;;;5075822;28;20560;-73
2022/03/22 07:42:37;;;;;;;5.93;3.67;;;11.40;1.00;;;;;;5075212;28;20256;-74
2022/03/22 07:45:08;;;;;;;5.37;3.73;;;11.40;1.00;;;;;;5084053;28;20881;-75
2022/03/22 07:47:35;;;;;;;6.37;4.30;;;11.60;1.00;;;;;;5086585;28;20706;-72
2022/03/22 07:53:07;;;;;;;3.83;3.33;;;11.60;1.00;;;;;;5090760;28;20243;-75
2022/03/22 07:55:36;;;;;;;7.37;2.77;;;11.60;1.00;;;;;;5080312;28;20221;-72
2022/03/22 07:58:05;;;;;;;6.03;4.03;;;11.70;1.00;;;;;;5086204;28;20203;-71
2022/03/22 08:00:37;;;;;;;4.23;3.57;;;11.80;1.00;;;;;;5082914;28;20296;-72
2022/03/22 08:03:05;;;;;;;6.13;3.67;;;11.80;1.00;;;;;;5080234;28;20205;-74
2022/03/22 08:05:35;;;;;;;4.27;3.40;;;11.90;1.00;;;;;;5092222;28;20209;-72
2022/03/22 08:08:02;;;;;;;7.07;3.37;;;11.90;1.00;;;;;;5084289;28;20229;-72
2022/03/22 08:10:30;;;;;;;4.20;3.50;;;12.10;1.00;;;;;;5084869;28;20206;-72
2022/03/22 08:12:57;;;;;;;5.87;4.13;;;12.00;1.00;;;;;;5083580;28;20258;-71
2022/03/22 08:15:24;;;;;;;6.40;3.30;;;12.10;1.00;;;;;;5094162;28;20645;-72
2022/03/22 08:17:53;;;;;;;5.43;3.70;;;12.20;1.00;;;;;;5093796;28;20197;-73
2022/03/22 08:20:20;;;;;;;4.53;3.22;;;12.20;1.00;;;;;;5094172;28;20279;-74
2022/03/22 08:22:49;;;;;;;5.73;3.07;;;12.20;1.00;;;;;;5092893;28;20657;-74
2022/03/22 08:25:17;;;;;;;4.95;3.83;;;12.30;1.00;;;;;;5080176;28;20206;-74
2022/03/22 08:27:44;;;;;;;8.70;4.35;;;12.30;1.00;;;;;;5076332;28;20242;-72
2022/03/22 08:30:13;;;;;;;6.82;2.92;;;12.50;1.00;;;;;;5091156;28;20205;-72
2022/03/22 08:32:42;;;;;;;5.57;3.47;;;12.50;1.00;;;;;;5084441;28;20210;-73
2022/03/22 08:35:10;;;;;;;6.07;3.53;;;12.60;1.00;;;;;;5093218;28;20300;-74
2022/03/22 08:37:38;;;;;;;5.37;3.33;;;12.50;1.00;;;;;;5081378;28;20626;-73
2022/03/22 08:40:07;;;;;;;5.55;2.90;;;12.80;1.00;;;;;;5092896;28;20209;-74
2022/03/22 08:42:34;;;;;;;8.38;4.38;;;12.90;1.00;;;;;;5079224;28;20259;-76
2022/03/22 08:45:01;;;;;;;8.17;3.37;;;13.10;1.00;;;;;;5093401;28;20258;-73
2022/03/22 08:47:29;;;;;;;3.65;3.20;;;13.30;1.00;;;;;;5093768;28;20282;-73
2022/03/22 08:49:57;;;;;;;5.28;4.00;;;13.00;1.00;;;;;;5092775;28;20217;-73
2022/03/22 08:52:25;;;;;;;4.22;3.15;;;12.80;1.00;;;;;;5092979;28;20296;-73
2022/03/22 08:54:52;;;;;;;6.05;3.90;;;13.00;1.00;;;;;;5092322;28;20202;-73
2022/03/22 08:57:19;;;;;;;7.28;4.72;;;13.20;1.00;;;;;;5092187;28;20201;-74
2022/03/22 08:59:47;;;;;;;5.75;3.42;;;13.40;1.00;;;;;;5093182;28;20589;-73
2022/03/22 09:02:14;;;;;;;4.15;3.50;;;13.20;1.00;;;;;;5093415;28;20209;-74
2022/03/22 09:07:26;;;;;;;4.50;3.53;;;13.30;1.00;;;;;;5093059;28;20239;-75
2022/03/22 09:09:53;;;;;;;3.85;3.03;;;13.40;1.00;;;;;;5087927;28;20661;-78
2022/03/22 09:12:20;;;;;;;4.07;3.67;;;13.80;1.00;;;;;;5079757;28;20739;-76
2022/03/22 09:14:47;;;;;;;5.07;3.42;;;13.90;1.00;;;;;;5080206;28;20233;-75
2022/03/22 09:17:14;;;;;;;3.70;3.10;;;13.50;1.00;;;;;;5077836;28;20259;-77
2022/03/22 09:19:41;;;;;;;4.13;2.22;;;13.90;1.00;;;;;;5075884;28;20213;-80
2022/03/22 09:22:10;;;;;;;3.90;3.17;;;13.50;1.00;;;;;;5087647;28;20672;-75
2022/03/22 09:24:38;;;;;;;5.60;3.25;;;14.30;1.00;;;;;;5092165;28;20263;-77
2022/03/22 09:27:05;;;;;;;5.22;3.08;;;13.90;1.00;;;;;;5082898;28;20286;-77
2022/03/22 09:29:32;;;;;;;6.35;3.47;;;13.60;1.00;;;;;;5085863;28;20636;-77
2022/03/22 09:31:59;;;;;;;3.17;2.75;;;13.90;1.00;;;;;;5076948;28;20197;-79
2022/03/22 09:34:28;;;;;;;6.78;3.83;;;14.10;1.00;;;;;;5088016;28;20274;-85
2022/03/22 09:36:55;;;;;;;4.75;3.33;;;14.10;1.00;;;;;;5092539;28;20282;-78
2022/03/22 09:39:24;;;;;;;6.22;3.20;;;14.40;1.00;;;;;;5090208;28;20233;-80
2022/03/22 09:41:52;;;;;;;4.97;3.15;;;14.10;1.00;;;;;;5082140;28;20305;-80
2022/03/22 09:44:20;;;;;;;4.80;2.38;;;14.30;1.00;;;;;;5081422;28;20198;-81
2022/03/22 09:46:48;;;;;;;3.50;2.58;;;14.10;1.00;;;;;;5087711;28;20277;-78
2022/03/22 09:49:16;;;;;;;4.32;2.85;;;13.80;1.00;;;;;;5087187;28;20208;-76
2022/03/22 09:51:47;;;;;;;3.67;3.28;;;14.00;1.00;;;;;;5092512;28;20247;-85
2022/03/22 09:54:15;;;;;;;7.50;3.72;;;14.00;1.00;;;;;;5086524;28;20208;-83
2022/03/22 09:56:42;;;;;;;5.43;3.28;;;14.70;1.00;;;;;;5085649;28;20209;-84
2022/03/22 09:59:11;;;;;;;3.13;2.05;;;14.90;1.00;;;;;;5091480;28;20621;-78
2022/03/22 10:01:39;;;;;;;5.90;3.83;;;14.40;1.00;;;;;;5084802;28;20207;-80
2022/03/22 10:04:08;;;;;;;3.58;2.65;;;14.60;1.00;;;;;;5081675;28;20708;-81
2022/03/22 10:06:36;;;;;;;6.20;3.25;;;14.60;1.00;;;;;;5089563;28;20229;-77
2022/03/22 10:09:06;;;;;;;4.97;2.63;;;14.90;1.00;;;;;;5087929;28;20201;-80
2022/03/22 10:11:38;;;;;;;5.05;2.83;;;15.00;1.00;;;;;;5083645;28;20707;-79
2022/03/22 10:14:08;;;;;;;7.40;3.97;;;14.90;1.00;;;;;;5085836;28;20627;-80
2022/03/22 10:16:48;;;;;;;8.10;2.92;;;15.10;1.00;;;;;;5085434;28;20296;-83
2022/03/22 10:19:22;;;;;;;3.75;3.28;;;15.00;1.00;;;;;;5083184;28;20206;-74
2022/03/22 10:21:49;;;;;;;5.30;3.05;;;15.70;1.00;;;;;;5074767;28;20255;-83
2022/03/22 10:24:16;;;;;;;6.32;2.88;;;15.60;1.00;;;;;;5085062;28;20255;-82
2022/03/22 10:26:46;;;;;;;6.53;2.67;;;15.70;1.00;;;;;;5084631;28;20708;-80
2022/03/22 10:29:14;;;;;;;4.55;3.00;;;16.00;1.00;;;;;;5089960;28;20201;-79
2022/03/22 10:31:42;;;;;;;4.20;3.05;;;16.70;1.00;;;;;;5088494;28;20255;-79
2022/03/22 10:34:15;;;;;;;5.30;3.00;;;17.00;1.00;;;;;;5082677;28;20270;-80
2022/03/22 10:36:42;;;;;;;5.82;3.40;;;16.10;1.00;;;;;;5090279;28;20673;-80
2022/03/22 10:39:12;;;;;;;5.82;3.35;;;15.40;1.00;;;;;;5089194;28;20205;-77
2022/03/22 10:41:41;;;;;;;5.45;3.00;;;14.90;1.00;;;;;;5071659;28;20206;-82
2022/03/22 10:44:10;;;;;;;3.63;3.28;;;15.00;1.00;;;;;;5071278;28;20205;-79
2022/03/22 10:46:39;;;;;;;4.10;3.60;;;15.30;1.00;;;;;;5071207;28;20636;-78
2022/03/22 10:49:08;;;;;;;5.50;2.92;;;14.70;1.00;;;;;;5074031;28;20237;-77
2022/03/22 10:51:43;;;;;;;4.60;2.70;;;15.10;1.00;;;;;;5091186;28;20738;-83
2022/03/22 10:54:12;;;;;;;6.22;2.95;;;14.90;1.00;;;;;;5091062;28;20580;-78
2022/03/22 10:56:46;;;;;;;5.70;2.60;;;14.80;1.00;;;;;;5083788;28;20221;-81
2022/03/22 10:59:15;;;;;;;5.18;3.22;;;15.40;1.00;;;;;;5084098;28;20202;-78
2022/03/22 11:01:43;;;;;;;5.72;3.00;;;15.10;1.00;;;;;;5088757;28;20198;-83
2022/03/22 11:04:10;;;;;;;5.32;3.15;;;15.00;1.00;;;;;;5082590;28;20298;-78
2022/03/22 11:06:39;;;;;;;6.97;3.95;;;15.00;1.00;;;;;;5085145;28;20213;-80
2022/03/22 11:09:07;;;;;;;9.57;3.03;;;15.20;1.00;;;;;;5084511;28;20703;-81
2022/03/22 11:11:35;;;;;;;3.85;3.08;;;15.10;1.00;;;;;;5091261;28;20212;-77
2022/03/22 11:14:03;;;;;;;3.70;3.17;;;15.30;1.00;;;;;;5091189;28;20622;-83
2022/03/22 11:16:34;;;;;;;4.53;3.40;;;15.20;1.00;;;;;;5085250;28;20206;-80
2022/03/22 11:19:03;;;;;;;6.95;3.22;;;15.20;1.00;;;;;;5086873;28;20205;-80
2022/03/22 11:21:32;;;;;;;6.85;3.30;;;15.50;1.00;;;;;;5085168;28;20209;-79
2022/03/22 11:24:08;;;;;;;5.05;3.30;;;15.10;1.00;;;;;;5089209;28;20775;-77
2022/03/22 11:26:42;;;;;;;6.57;3.65;;;15.40;1.00;;;;;;5090809;28;20212;-78
2022/03/22 11:29:12;;;;;;;4.63;3.22;;;15.40;1.00;;;;;;5089995;28;20201;-80
2022/03/22 11:31:40;;;;;;;3.70;3.15;;;15.40;1.00;;;;;;5087913;28;20566;-82
2022/03/22 11:34:11;;;;;;;5.57;3.20;;;15.70;1.00;;;;;;5085852;28;20266;-79
2022/03/22 11:36:44;;;;;;;4.50;2.88;;;15.70;1.00;;;;;;5090409;28;20708;-79
2022/03/22 11:39:17;;;;;;;5.45;2.97;;;15.80;1.00;;;;;;5090179;28;20288;-76
2022/03/22 11:44:38;;;;;;;3.42;2.72;;;15.00;1.00;;;;;;5090821;28;20227;-79
2022/03/22 11:47:08;;;;;;;7.25;4.00;;;15.70;1.00;;;;;;5089796;28;20638;-75
2022/03/22 11:49:50;;;;;;;4.00;2.63;;;15.50;1.00;;;;;;5090255;28;20377;-79
2022/03/22 11:52:18;;;;;;;6.70;3.30;;;15.10;1.00;;;;;;5089931;28;20277;-76
2022/03/22 11:54:57;;;;;;;2.53;2.33;;;15.40;1.00;;;;;;5077257;28;20340;-76
2022/03/22 11:57:24;;;;;;;4.70;3.20;;;15.50;1.00;;;;;;5084331;28;20201;-76
2022/03/22 11:59:52;;;;;;;7.97;2.95;;;15.50;1.00;;;;;;5082330;28;20558;-76
2022/03/22 12:02:22;;;;;;;4.45;2.85;;;15.20;1.00;;;;;;5077728;28;20578;-77
2022/03/22 12:04:54;;;;;;;5.38;2.90;;;15.30;1.00;;;;;;5080246;28;20241;-76
2022/03/22 12:07:24;;;;;;;4.78;3.65;;;15.10;1.00;;;;;;5076402;28;20271;-79
2022/03/22 12:09:52;;;;;;;3.03;2.50;;;15.40;1.00;;;;;;5078945;28;20593;-76
2022/03/22 12:12:20;;;;;;;4.40;3.22;;;15.50;1.00;;;;;;5086298;28;20213;-77
2022/03/22 12:14:48;;;;;;;3.03;2.60;;;15.80;1.00;;;;;;5070376;28;20739;-74
2022/03/22 12:17:16;;;;;;;8.00;2.85;;;16.00;1.00;;;;;;5070588;28;20206;-74
2022/03/22 12:19:44;;;;;;;3.55;2.92;;;15.60;1.00;;;;;;5070727;28;20206;-76
2022/03/22 12:22:11;;;;;;;4.82;3.08;;;15.40;1.00;;;;;;5070220;28;20610;-75
2022/03/22 12:24:38;;;;;;;6.93;2.65;;;15.60;1.00;;;;;;5074548;28;20206;-75
2022/03/22 12:27:08;;;;;;;2.63;2.42;;;15.60;1.00;;;;;;5077268;28;20762;-76
2022/03/22 12:29:41;;;;;;;3.50;2.63;;;15.60;1.00;;;;;;5089284;28;20231;-78
2022/03/22 12:32:14;;;;;;;6.50;3.25;;;15.20;1.00;;;;;;5085123;28;20258;-74
2022/03/22 12:34:41;;;;;;;3.95;3.03;;;15.40;1.00;;;;;;5090836;28;20636;-74
2022/03/22 12:37:09;;;;;;;5.25;3.35;;;15.50;1.00;;;;;;5090292;28;20300;-75
2022/03/22 12:39:41;;;;;;;4.25;2.88;;;15.60;1.00;;;;;;5081577;28;20309;-75
2022/03/22 12:42:09;;;;;;;4.28;3.63;;;15.70;1.00;;;;;;5079340;28;20202;-74
2022/03/22 12:44:36;;;;;;;4.60;3.53;;;15.40;1.00;;;;;;5084345;28;20205;-72
2022/03/22 12:47:06;;;;;;;5.40;2.60;;;15.50;1.00;;;;;;5083010;28;20201;-74
2022/03/22 12:49:34;;;;;;;6.53;3.33;;;15.30;1.00;;;;;;5081117;28;20218;-73
2022/03/22 12:52:02;;;;;;;4.28;3.17;;;15.40;1.00;;;;;;5074534;28;20298;-74
2022/03/22 12:54:33;;;;;;;3.53;3.15;;;15.40;1.00;;;;;;5076641;28;20264;-72
2022/03/22 12:57:02;;;;;;;5.38;3.25;;;15.30;1.00;;;;;;5075074;28;20203;-75
2022/03/22 12:59:30;;;;;;;6.93;3.53;;;15.40;1.00;;;;;;5091362;28;20258;-78
2022/03/22 13:01:58;;;;;;;4.15;3.75;;;15.80;1.00;;;;;;5092263;28;20232;-75
2022/03/22 13:04:29;;;;;;;4.10;3.70;;;15.80;1.00;;;;;;5081307;28;20627;-75
2022/03/22 13:06:57;;;;;;;5.68;3.58;;;15.70;1.00;;;;;;5081715;28;20252;-77
2022/03/22 13:12:11;;;;;;;5.95;3.58;;;15.90;1.00;;;;;;5093319;28;20208;-77
2022/03/22 13:17:23;;;;;;;4.07;3.15;;;16.10;1.00;;;;;;5073401;28;20209;-76
2022/03/22 13:19:51;;;;;;;5.05;3.55;;;15.60;1.00;;;;;;5072803;28;20206;-76
2022/03/22 13:22:20;;;;;;;4.05;3.28;;;15.60;1.00;;;;;;5078035;28;20220;-76
2022/03/22 13:24:48;;;;;;;4.43;3.45;;;15.50;1.00;;;;;;5078649;28;20271;-75
2022/03/22 13:27:17;;;;;;;3.47;3.10;;;15.80;1.00;;;;;;5073531;28;20202;-76
2022/03/22 13:29:45;;;;;;;4.88;3.13;;;15.80;1.00;;;;;;5073331;28;20198;-74
2022/03/22 13:32:13;;;;;;;6.28;3.33;;;15.80;1.00;;;;;;5072895;28;20276;-77
2022/03/22 13:34:43;;;;;;;5.78;3.35;;;15.80;1.00;;;;;;5085621;28;20292;-80
2022/03/22 13:37:14;;;;;;;7.35;3.33;;;15.80;1.00;;;;;;5091875;28;20209;-77
2022/03/22 13:39:43;;;;;;;3.17;2.88;;;15.90;1.00;;;;;;5082399;28;20210;-74
2022/03/22 13:42:12;;;;;;;4.50;2.88;;;15.90;1.00;;;;;;5070858;28;20202;-74
2022/03/22 13:44:48;;;;;;;7.38;3.95;;;15.80;1.00;;;;;;5071154;28;20708;-73